createdAt,value
2018-05-21T00:00:33.449Z,102569.05
2018-05-21T00:03:00.971Z,102581.25
2018-05-21T00:05:28.547Z,102708.25
2018-05-21T00:07:56.226Z,102637.13
2018-05-21T00:10:23.736Z,102672.69
2018-05-21T00:12:51.269Z,102643.22
2018-05-21T00:15:18.810Z,102722.48
2018-05-21T00:17:46.320Z,102682.85
2018-05-21T00:20:13.862Z,102678.79
2018-05-21T00:22:41.387Z,102676.75
2018-05-21T00:25:08.929Z,102821.04
2018-05-21T00:27:36.814Z,102868.80
2018-05-21T00:30:04.329Z,102937.89
2018-05-21T00:32:31.858Z,102796.66
2018-05-21T00:34:59.530Z,102819.01
2018-05-21T00:37:27.051Z,102905.38
2018-05-21T00:39:54.562Z,103047.64
2018-05-21T00:42:22.110Z,102880.99
2018-05-21T00:44:49.671Z,102986.67
2018-05-21T00:47:17.627Z,103160.44
2018-05-21T00:49:45.141Z,102973.46
2018-05-21T00:52:12.649Z,102889.12
2018-05-21T00:54:51.602Z,102861.69
2018-05-21T00:57:19.124Z,102883.02
2018-05-21T00:59:46.702Z,102912.48
2018-05-21T01:02:14.410Z,102918.59
2018-05-21T01:04:41.921Z,102891.16
2018-05-21T01:07:09.450Z,102985.66
2018-05-21T01:09:36.981Z,103008.01
2018-05-21T01:12:04.496Z,103074.06
2018-05-21T01:14:32.042Z,103039.52
2018-05-21T01:16:59.565Z,103020.20
2018-05-21T01:19:27.339Z,103042.56
2018-05-21T01:21:54.854Z,103062.88
2018-05-21T01:24:22.374Z,103076.09
2018-05-21T01:26:50.351Z,103185.84
2018-05-21T01:29:17.861Z,103100.48
2018-05-21T01:31:45.378Z,103156.38
2018-05-21T01:34:12.949Z,103190.92
2018-05-21T01:36:40.461Z,103142.14
2018-05-21T01:39:07.982Z,103203.13
2018-05-21T01:41:35.534Z,103302.71
2018-05-21T01:44:03.042Z,103314.91
2018-05-21T01:46:30.582Z,103232.59
2018-05-21T01:48:58.121Z,103204.14
2018-05-21T01:51:25.634Z,103260.03
2018-05-21T01:53:53.153Z,103235.64
2018-05-21T01:56:20.689Z,103247.83
2018-05-21T01:58:48.226Z,103245.80
2018-05-21T02:01:15.760Z,103280.35
2018-05-21T02:03:43.294Z,103274.26
2018-05-21T02:06:10.811Z,103334.22
2018-05-21T02:08:38.423Z,103397.23
2018-05-21T02:11:05.925Z,103336.25
2018-05-21T02:13:33.483Z,103352.51
2018-05-21T02:16:01.046Z,103359.63
2018-05-21T02:18:28.579Z,103337.27
2018-05-21T02:20:56.141Z,103323.03
2018-05-21T02:23:23.703Z,103364.70
2018-05-21T02:25:51.258Z,103356.58
2018-05-21T02:28:18.830Z,103345.39
2018-05-21T02:30:46.433Z,103374.87
2018-05-21T02:33:13.967Z,103429.75
2018-05-21T02:35:41.510Z,103430.77
2018-05-21T02:38:09.041Z,103448.04
2018-05-21T02:40:36.591Z,103413.48
2018-05-21T02:43:04.312Z,103411.45
2018-05-21T02:45:31.839Z,103435.84
2018-05-21T02:47:59.363Z,103439.91
2018-05-21T02:50:26.921Z,103446.00
2018-05-21T02:52:54.525Z,103499.88
2018-05-21T02:55:22.113Z,103481.58
2018-05-21T02:57:49.664Z,103457.19
2018-05-21T03:00:17.183Z,103484.63
2018-05-21T03:02:44.900Z,103470.40
2018-05-21T03:05:12.420Z,103537.47
2018-05-21T03:07:39.960Z,103480.56
2018-05-21T03:10:07.507Z,103447.02
2018-05-21T03:12:35.028Z,103474.46
2018-05-21T03:15:02.572Z,103480.56
2018-05-21T03:17:30.100Z,103529.34
2018-05-21T03:19:57.813Z,103494.78
2018-05-21T03:22:25.348Z,103546.62
2018-05-21T03:24:52.879Z,103491.73
2018-05-21T03:27:20.464Z,103524.27
2018-05-21T03:29:47.983Z,103525.28
2018-05-21T03:32:15.507Z,103505.97
2018-05-21T03:34:43.067Z,103535.44
2018-05-21T03:37:10.590Z,103566.95
2018-05-21T03:39:38.162Z,103562.88
2018-05-21T03:42:05.689Z,103547.64
2018-05-21T03:44:33.209Z,103559.83
2018-05-21T03:47:00.768Z,103515.11
2018-05-21T03:49:28.292Z,103544.59
2018-05-21T03:51:55.839Z,103520.20
2018-05-21T03:54:23.371Z,103523.24
2018-05-21T03:56:50.923Z,103539.51
2018-05-21T03:59:30.269Z,103492.75
2018-05-21T04:02:09.699Z,103479.55
2018-05-21T04:04:37.304Z,103497.84
2018-05-21T04:07:04.828Z,103480.56
2018-05-21T04:09:32.367Z,103474.46
2018-05-21T04:11:59.926Z,103436.86
2018-05-21T04:14:27.462Z,103491.73
2018-05-21T04:16:55.917Z,103400.27
2018-05-21T04:19:23.442Z,103394.17
2018-05-21T04:21:50.963Z,103366.73
2018-05-21T04:24:18.515Z,103364.70
2018-05-21T04:26:46.038Z,103356.58
2018-05-21T04:29:13.715Z,103315.92
2018-05-21T04:31:41.239Z,103284.42
2018-05-21T04:34:08.746Z,103288.48
2018-05-21T04:36:36.294Z,103302.71
2018-05-21T04:39:03.836Z,103321.00
2018-05-21T04:41:31.408Z,103261.05
2018-05-21T04:43:58.926Z,103300.68
2018-05-21T04:46:26.451Z,103272.22
2018-05-21T04:48:54.003Z,103232.59
2018-05-21T04:51:21.527Z,103193.97
2018-05-21T04:53:49.076Z,103171.62
2018-05-21T04:56:16.631Z,103115.73
2018-05-21T04:58:44.160Z,103045.61
2018-05-21T05:01:11.739Z,102887.09
2018-05-21T05:03:39.262Z,102759.05
2018-05-21T05:06:06.794Z,102476.59
2018-05-21T05:08:34.803Z,102215.48
2018-05-21T05:11:02.328Z,101829.45
2018-05-21T05:13:29.869Z,102041.77
2018-05-21T05:15:57.423Z,101791.87
2018-05-21T05:18:24.943Z,101908.69
2018-05-21T05:20:52.822Z,101912.75
2018-05-21T05:23:20.347Z,101511.52
2018-05-21T05:25:47.878Z,101899.55
2018-05-21T05:28:15.433Z,101296.19
2018-05-21T05:30:42.964Z,101337.83
2018-05-21T05:33:10.515Z,101204.78
2018-05-21T05:35:38.050Z,101276.89
2018-05-21T05:38:05.594Z,101131.66
2018-05-21T05:40:33.149Z,100855.41
2018-05-21T05:43:00.677Z,100833.07
2018-05-21T05:45:28.331Z,101636.45
2018-05-21T05:47:55.856Z,101626.30
2018-05-21T05:50:23.389Z,101460.73
2018-05-21T05:52:50.934Z,101287.05
2018-05-21T05:55:18.678Z,101295.17
2018-05-21T05:57:46.202Z,101101.19
2018-05-21T06:00:13.723Z,101200.72
2018-05-21T06:02:41.267Z,101510.50
2018-05-21T06:05:08.792Z,101369.31
2018-05-21T06:07:36.456Z,101265.72
2018-05-21T06:10:03.987Z,101065.64
2018-05-21T06:12:31.512Z,101150.95
2018-05-21T06:14:59.077Z,100737.61
2018-05-21T06:17:26.606Z,100855.41
2018-05-21T06:19:54.156Z,100708.16
2018-05-21T06:22:21.723Z,100659.42
2018-05-21T06:24:49.656Z,100991.50
2018-05-21T06:27:17.186Z,100950.88
2018-05-21T06:29:44.724Z,100744.72
2018-05-21T06:32:12.280Z,100646.22
2018-05-21T06:34:39.837Z,100781.28
2018-05-21T06:37:07.402Z,100613.72
2018-05-21T06:39:34.926Z,100523.34
2018-05-21T06:42:02.447Z,101016.89
2018-05-21T06:44:30.031Z,100973.22
2018-05-21T06:46:57.556Z,100835.10
2018-05-21T06:49:25.118Z,100862.52
2018-05-21T06:51:52.675Z,100630.98
2018-05-21T06:54:20.219Z,100575.14
2018-05-21T06:56:47.742Z,100419.77
2018-05-21T06:59:15.282Z,100640.13
2018-05-21T07:01:42.824Z,100557.88
2018-05-21T07:04:10.342Z,100876.73
2018-05-21T07:06:37.920Z,101078.84
2018-05-21T07:09:05.473Z,101133.69
2018-05-21T07:11:33.019Z,101216.97
2018-05-21T07:14:00.548Z,101143.84
2018-05-21T07:16:28.113Z,101214.94
2018-05-21T07:18:55.639Z,101214.94
2018-05-21T07:21:23.176Z,101140.80
2018-05-21T07:23:51.116Z,101223.05
2018-05-21T07:26:18.703Z,101116.42
2018-05-21T07:28:46.236Z,101010.80
2018-05-21T07:31:13.787Z,101052.44
2018-05-21T07:33:41.310Z,100998.61
2018-05-21T07:36:08.886Z,100964.08
2018-05-21T07:38:36.418Z,100839.16
2018-05-21T07:41:03.949Z,100811.74
2018-05-21T07:43:31.524Z,100799.56
2018-05-21T07:45:59.042Z,100796.52
2018-05-21T07:48:26.749Z,100707.15
2018-05-21T07:50:54.284Z,100675.67
2018-05-21T07:53:21.815Z,100606.62
2018-05-21T07:55:50.013Z,100607.63
2018-05-21T07:58:17.541Z,100566.00
2018-05-21T08:00:45.069Z,100596.46
2018-05-21T08:03:12.620Z,100432.97
2018-05-21T08:05:40.170Z,100408.61
2018-05-21T08:08:07.746Z,100514.20
2018-05-21T08:10:35.592Z,100398.45
2018-05-21T08:13:03.116Z,100391.34
2018-05-21T08:15:30.862Z,100264.42
2018-05-21T08:17:58.381Z,100261.37
2018-05-21T08:20:25.901Z,100337.53
2018-05-21T08:22:53.483Z,100218.73
2018-05-21T08:25:21.050Z,100103.99
2018-05-21T08:27:48.577Z,99938.50
2018-05-21T08:30:16.136Z,99983.17
2018-05-21T08:32:43.688Z,99899.92
2018-05-21T08:35:11.244Z,99887.73
2018-05-21T08:37:38.775Z,99786.22
2018-05-21T08:40:06.347Z,99692.81
2018-05-21T08:42:33.866Z,99927.34
2018-05-21T08:45:01.426Z,99759.81
2018-05-21T08:47:28.978Z,99672.52
2018-05-21T08:49:56.515Z,99705.00
2018-05-21T08:52:24.108Z,99742.56
2018-05-21T08:54:51.616Z,99827.84
2018-05-21T08:57:19.195Z,99719.21
2018-05-21T08:59:46.708Z,99791.29
2018-05-21T09:02:14.237Z,99710.07
2018-05-21T09:04:41.919Z,99724.28
2018-05-21T09:07:09.400Z,99595.36
2018-05-21T09:09:36.923Z,99544.59
2018-05-21T09:12:04.530Z,99632.92
2018-05-21T09:14:32.048Z,99625.81
2018-05-21T09:16:59.572Z,99676.57
2018-05-21T09:19:27.129Z,99602.47
2018-05-21T09:21:54.655Z,99358.83
2018-05-21T09:24:22.195Z,99487.75
2018-05-21T09:26:49.711Z,99497.90
2018-05-21T09:29:17.233Z,99419.73
2018-05-21T09:31:44.781Z,99288.78
2018-05-21T09:34:12.310Z,99366.95
2018-05-21T09:36:39.875Z,99312.13
2018-05-21T09:39:07.412Z,99307.06
2018-05-21T09:41:34.934Z,99260.36
2018-05-21T09:44:02.498Z,99193.37
2018-05-21T09:46:30.028Z,99166.98
2018-05-21T09:48:57.556Z,99199.46
2018-05-21T09:51:25.113Z,99223.83
2018-05-21T09:53:52.634Z,99122.31
2018-05-21T09:56:20.346Z,98975.14
2018-05-21T09:58:47.870Z,98970.06
2018-05-21T10:01:15.393Z,98952.81
2018-05-21T10:03:42.931Z,99060.40
2018-05-21T10:06:10.466Z,98947.73
2018-05-21T10:08:38.011Z,98883.80
2018-05-21T10:11:05.572Z,98716.33
2018-05-21T10:13:33.105Z,98682.83
2018-05-21T10:16:00.653Z,98785.34
2018-05-21T10:18:28.213Z,98963.97
2018-05-21T10:20:55.732Z,98924.39
2018-05-21T10:23:23.279Z,98886.84
2018-05-21T10:25:50.861Z,98754.89
2018-05-21T10:28:18.393Z,98773.16
2018-05-21T10:30:45.924Z,98662.53
2018-05-21T10:33:13.477Z,98523.50
2018-05-21T10:35:41.000Z,98490.01
2018-05-21T10:38:08.547Z,98414.91
2018-05-21T10:40:36.127Z,98631.08
2018-05-21T10:43:03.829Z,98542.78
2018-05-21T10:45:31.360Z,98538.72
2018-05-21T10:47:58.906Z,98461.59
2018-05-21T10:50:26.461Z,98486.96
2018-05-21T10:52:54.004Z,98539.73
2018-05-21T10:55:21.971Z,98643.25
2018-05-21T10:57:49.499Z,98474.78
2018-05-21T11:00:17.019Z,98330.68
2018-05-21T11:02:44.558Z,98431.14
2018-05-21T11:05:12.107Z,98433.18
2018-05-21T11:07:39.627Z,98225.14
2018-05-21T11:10:07.176Z,98391.57
2018-05-21T11:12:34.699Z,98372.28
2018-05-21T11:15:02.247Z,98363.16
2018-05-21T11:17:29.798Z,98321.55
2018-05-21T11:19:57.304Z,98318.50
2018-05-21T11:22:25.007Z,98342.86
2018-05-21T11:24:52.522Z,98406.80
2018-05-21T11:27:20.035Z,98209.92
2018-05-21T11:29:47.728Z,98163.23
2018-05-21T11:32:15.239Z,98173.39
2018-05-21T11:34:42.755Z,97962.33
2018-05-21T11:37:10.295Z,98104.39
2018-05-21T11:39:38.014Z,98204.84
2018-05-21T11:42:05.615Z,98144.98
2018-05-21T11:44:33.139Z,98298.20
2018-05-21T11:47:00.685Z,98239.34
2018-05-21T11:49:28.617Z,98380.41
2018-05-21T11:51:56.144Z,98277.91
2018-05-21T11:54:23.666Z,98260.66
2018-05-21T11:56:51.214Z,98265.73
2018-05-21T11:59:18.743Z,98326.63
2018-05-21T12:01:46.327Z,98232.24
2018-05-21T12:04:13.846Z,98177.45
2018-05-21T12:06:41.372Z,98256.59
2018-05-21T12:09:08.916Z,97991.75
2018-05-21T12:11:36.434Z,98255.59
2018-05-21T12:14:03.989Z,98250.52
2018-05-21T12:16:31.520Z,98165.27
2018-05-21T12:18:59.140Z,98044.52
2018-05-21T12:21:26.665Z,97948.12
2018-05-21T12:23:54.208Z,98014.08
2018-05-21T12:26:21.756Z,97933.91
2018-05-21T12:28:49.288Z,97904.48
2018-05-21T12:31:17.064Z,97963.34
2018-05-21T12:33:44.585Z,98016.11
2018-05-21T12:36:12.112Z,97990.73
2018-05-21T12:38:39.765Z,97965.37
2018-05-21T12:41:07.283Z,97999.88
2018-05-21T12:43:34.803Z,97984.65
2018-05-21T12:46:02.389Z,98170.34
2018-05-21T12:48:29.915Z,98069.89
2018-05-21T12:50:57.443Z,98028.28
2018-05-21T12:53:24.992Z,97810.12
2018-05-21T12:55:52.532Z,97672.14
2018-05-21T12:58:20.072Z,97620.39
2018-05-21T13:00:47.716Z,97542.27
2018-05-21T13:03:15.244Z,97532.13
2018-05-21T13:05:42.759Z,97579.80
2018-05-21T13:08:10.305Z,97928.84
2018-05-21T13:10:37.823Z,97907.53
2018-05-21T13:13:05.398Z,97960.30
2018-05-21T13:15:32.992Z,97787.80
2018-05-21T13:18:00.508Z,97850.71
2018-05-21T13:20:28.083Z,97931.88
2018-05-21T13:22:55.610Z,97916.66
2018-05-21T13:25:23.132Z,97973.48
2018-05-21T13:27:50.672Z,97550.38
2018-05-21T13:30:18.189Z,97793.89
2018-05-21T13:32:45.733Z,97805.05
2018-05-21T13:35:13.255Z,97769.54
2018-05-21T13:37:41.227Z,97828.39
2018-05-21T13:40:08.788Z,97701.56
2018-05-21T13:42:36.319Z,97728.95
2018-05-21T13:45:03.898Z,97654.88
2018-05-21T13:47:31.411Z,97598.06
2018-05-21T13:49:58.927Z,97795.92
2018-05-21T13:52:26.964Z,97846.66
2018-05-21T13:54:54.441Z,97861.88
2018-05-21T13:57:21.997Z,97883.18
2018-05-21T13:59:49.555Z,97952.17
2018-05-21T14:02:17.066Z,97806.06
2018-05-21T14:04:44.947Z,97730.98
2018-05-21T14:07:12.595Z,97895.36
2018-05-21T14:09:40.120Z,97971.45
2018-05-21T14:12:07.663Z,97913.63
2018-05-21T14:14:35.200Z,97802.01
2018-05-21T14:17:02.742Z,97489.52
2018-05-21T14:19:31.063Z,97258.20
2018-05-21T14:21:58.793Z,97192.26
2018-05-21T14:24:26.318Z,97259.21
2018-05-21T14:26:53.850Z,97464.14
2018-05-21T14:29:21.396Z,97641.70
2018-05-21T14:31:48.914Z,97664.02
2018-05-21T14:34:16.458Z,97482.41
2018-05-21T14:36:44.327Z,97673.15
2018-05-21T14:39:11.861Z,97759.39
2018-05-21T14:41:39.375Z,97781.71
2018-05-21T14:44:06.923Z,97674.16
2018-05-21T14:46:34.451Z,97423.56
2018-05-21T14:49:01.997Z,97650.83
2018-05-21T14:51:29.529Z,97657.93
2018-05-21T14:53:57.074Z,97407.33
2018-05-21T14:56:24.587Z,97525.02
2018-05-21T14:58:52.147Z,97474.30
2018-05-21T15:01:19.680Z,97413.42
2018-05-21T15:03:47.222Z,97424.58
2018-05-21T15:06:14.739Z,97586.91
2018-05-21T15:08:42.510Z,97550.38
2018-05-21T15:11:10.023Z,97705.62
2018-05-21T15:13:37.542Z,97684.31
2018-05-21T15:16:05.366Z,97609.23
2018-05-21T15:18:32.847Z,97823.31
2018-05-21T15:21:00.381Z,97771.57
2018-05-21T15:23:28.119Z,97838.53
2018-05-21T15:25:55.631Z,97756.35
2018-05-21T15:28:23.188Z,97605.17
2018-05-21T15:30:50.732Z,97441.83
2018-05-21T15:33:18.282Z,97409.36
2018-05-21T15:35:45.807Z,97599.08
2018-05-21T15:38:13.347Z,97659.96
2018-05-21T15:40:40.872Z,97604.16
2018-05-21T15:43:08.412Z,97401.24
2018-05-21T15:45:35.941Z,97626.48
2018-05-21T15:48:03.959Z,97638.66
2018-05-21T15:50:31.479Z,97483.42
2018-05-21T15:52:58.994Z,97602.13
2018-05-21T15:55:26.674Z,97626.48
2018-05-21T15:57:54.202Z,97611.26
2018-05-21T16:00:21.737Z,97330.23
2018-05-21T16:02:49.433Z,97342.41
2018-05-21T16:05:16.964Z,97605.17
2018-05-21T16:07:44.743Z,97550.38
2018-05-21T16:10:12.263Z,97543.28
2018-05-21T16:12:39.785Z,97638.66
2018-05-21T16:15:07.337Z,97831.44
2018-05-21T16:17:34.868Z,97537.20
2018-05-21T16:20:02.870Z,97655.90
2018-05-21T16:22:30.409Z,97744.17
2018-05-21T16:24:57.922Z,97648.80
2018-05-21T16:27:25.467Z,97752.29
2018-05-21T16:29:52.982Z,97736.05
2018-05-21T16:32:20.566Z,97745.19
2018-05-21T16:34:48.099Z,97711.70
2018-05-21T16:37:15.658Z,97623.44
2018-05-21T16:39:43.244Z,97766.49
2018-05-21T16:42:10.768Z,97880.13
2018-05-21T16:44:38.296Z,97848.68
2018-05-21T16:47:05.855Z,97837.52
2018-05-21T16:49:33.375Z,97954.21
2018-05-21T16:52:01.477Z,97844.63
2018-05-21T16:54:28.927Z,97959.28
2018-05-21T16:56:56.460Z,97852.73
2018-05-21T16:59:24.204Z,97868.98
2018-05-21T17:01:51.738Z,97860.86
2018-05-21T17:04:19.263Z,97994.80
2018-05-21T17:06:46.805Z,97934.93
2018-05-21T17:09:14.460Z,97922.75
2018-05-21T17:11:42.022Z,97909.56
2018-05-21T17:14:09.539Z,97922.75
2018-05-21T17:16:37.210Z,97996.83
2018-05-21T17:19:04.807Z,97959.28
2018-05-21T17:21:32.323Z,97902.46
2018-05-21T17:24:00.266Z,98003.92
2018-05-21T17:26:28.723Z,97905.50
2018-05-21T17:28:56.251Z,97999.88
2018-05-21T17:31:23.791Z,98126.71
2018-05-21T17:33:51.340Z,98075.97
2018-05-21T17:36:18.860Z,98053.66
2018-05-21T17:38:46.412Z,98142.95
2018-05-21T17:41:13.939Z,98080.03
2018-05-21T17:43:41.530Z,98111.48
2018-05-21T17:46:09.060Z,98045.53
2018-05-21T17:48:36.570Z,98066.84
2018-05-21T17:51:04.267Z,98203.83
2018-05-21T17:53:31.800Z,98196.73
2018-05-21T17:55:59.314Z,97788.81
2018-05-21T17:58:26.875Z,97239.94
2018-05-21T18:00:54.565Z,96876.77
2018-05-21T18:03:22.088Z,97302.84
2018-05-21T18:05:49.624Z,96971.11
2018-05-21T18:08:17.188Z,96757.08
2018-05-21T18:10:44.713Z,96990.38
2018-05-21T18:13:12.239Z,97583.86
2018-05-21T18:15:39.788Z,97772.58
2018-05-21T18:18:07.331Z,97618.36
2018-05-21T18:20:34.891Z,98153.09
2018-05-21T18:23:02.411Z,98236.30
2018-05-21T18:25:29.979Z,98391.57
2018-05-21T18:27:57.507Z,98698.06
2018-05-21T18:30:25.042Z,98708.20
2018-05-21T18:32:52.604Z,98633.11
2018-05-21T18:35:20.123Z,98766.06
2018-05-21T18:37:47.695Z,98694.00
2018-05-21T18:40:15.209Z,98748.80
2018-05-21T18:42:42.829Z,98782.30
2018-05-21T18:45:10.432Z,98801.58
2018-05-21T18:47:37.950Z,98940.63
2018-05-21T18:50:05.478Z,99186.27
2018-05-21T18:52:33.024Z,99069.53
2018-05-21T18:55:00.567Z,99093.89
2018-05-21T18:57:28.087Z,99136.53
2018-05-21T18:59:55.631Z,99085.78
2018-05-21T19:02:23.154Z,99139.58
2018-05-21T19:04:50.712Z,99234.98
2018-05-21T19:07:18.259Z,99210.63
2018-05-21T19:09:45.884Z,99243.11
2018-05-21T19:12:13.471Z,99337.52
2018-05-21T19:14:41.152Z,99337.52
2018-05-21T19:17:08.676Z,99492.83
2018-05-21T19:19:36.190Z,99585.20
2018-05-21T19:22:03.751Z,99634.95
2018-05-21T19:24:31.289Z,99535.46
2018-05-21T19:26:58.833Z,99587.23
2018-05-21T19:29:26.385Z,99648.14
2018-05-21T19:31:53.916Z,99700.94
2018-05-21T19:34:21.629Z,99816.67
2018-05-21T19:36:50.226Z,99779.11
2018-05-21T19:39:17.743Z,99915.16
2018-05-21T19:41:45.277Z,99940.53
2018-05-21T19:44:13.089Z,99967.94
2018-05-21T19:46:45.430Z,100032.92
2018-05-21T19:49:13.115Z,100061.35
2018-05-21T19:51:40.699Z,100063.38
2018-05-21T19:54:09.218Z,100089.78
2018-05-21T19:56:36.919Z,100119.22
2018-05-21T19:59:04.575Z,100118.20
2018-05-21T20:01:32.579Z,100181.16
2018-05-21T20:04:00.099Z,100324.33
2018-05-21T20:06:28.535Z,100207.56
2018-05-21T20:08:56.077Z,100147.66
2018-05-21T20:11:23.615Z,100328.39
2018-05-21T20:13:51.172Z,100324.33
2018-05-21T20:16:18.699Z,100232.94
2018-05-21T20:18:46.297Z,100328.39
2018-05-21T20:21:13.821Z,100342.60
2018-05-21T20:23:41.416Z,100384.23
2018-05-21T20:26:08.980Z,100390.33
2018-05-21T20:28:36.953Z,100413.68
2018-05-21T20:31:04.512Z,100407.59
2018-05-21T20:33:32.035Z,100540.61
2018-05-21T20:35:59.582Z,100389.31
2018-05-21T20:38:27.115Z,100391.34
2018-05-21T20:40:54.658Z,100371.03
2018-05-21T20:43:22.213Z,100507.10
2018-05-21T20:45:49.743Z,100453.28
2018-05-21T20:48:17.323Z,100455.31
2018-05-21T20:50:44.852Z,100510.15
2018-05-21T20:53:12.408Z,100759.95
2018-05-21T20:55:39.997Z,100656.38
2018-05-21T20:58:07.520Z,100684.80
2018-05-21T21:00:35.038Z,100605.60
2018-05-21T21:03:02.585Z,100652.31
2018-05-21T21:05:30.152Z,100792.45
2018-05-21T21:07:57.700Z,100704.10
2018-05-21T21:10:25.391Z,100851.35
2018-05-21T21:12:52.921Z,100785.34
2018-05-21T21:15:20.448Z,100680.75
2018-05-21T21:17:48.003Z,100688.88
2018-05-21T21:20:15.566Z,100725.42
2018-05-21T21:22:43.155Z,100642.16
2018-05-21T21:25:10.688Z,100668.56
2018-05-21T21:27:38.222Z,100662.47
2018-05-21T21:30:05.785Z,100792.45
2018-05-21T21:32:33.413Z,100813.77
2018-05-21T21:35:00.898Z,100764.02
2018-05-21T21:37:28.432Z,100784.33
2018-05-21T21:39:55.990Z,100808.70
2018-05-21T21:42:23.514Z,100974.23
2018-05-21T21:44:51.057Z,100919.39
2018-05-21T21:47:18.603Z,100950.88
2018-05-21T21:49:46.367Z,100911.27
2018-05-21T21:52:13.899Z,100864.55
2018-05-21T21:54:41.417Z,100844.24
2018-05-21T21:57:08.958Z,100905.17
2018-05-21T21:59:36.512Z,100987.44
2018-05-21T22:02:04.163Z,100979.31
2018-05-21T22:04:31.690Z,100896.03
2018-05-21T22:06:59.218Z,100931.58
2018-05-21T22:09:27.251Z,100972.20
2018-05-21T22:11:54.839Z,100963.06
2018-05-21T22:14:22.354Z,101013.84
2018-05-21T22:16:49.975Z,101036.19
2018-05-21T22:19:17.494Z,100979.31
2018-05-21T22:21:45.093Z,101013.84
2018-05-21T22:24:12.651Z,101017.91
2018-05-21T22:26:40.184Z,101156.03
2018-05-21T22:29:07.764Z,101065.64
2018-05-21T22:31:35.287Z,101015.88
2018-05-21T22:34:02.810Z,100989.47
2018-05-21T22:36:30.365Z,101026.03
2018-05-21T22:38:57.947Z,101154.00
2018-05-21T22:41:25.487Z,101248.45
2018-05-21T22:43:53.013Z,101244.39
2018-05-21T22:46:20.597Z,101272.83
2018-05-21T22:48:48.122Z,101288.06
2018-05-21T22:51:15.633Z,101452.60
2018-05-21T22:53:43.188Z,101491.20
2018-05-21T22:56:10.765Z,101554.17
2018-05-21T22:58:38.314Z,101507.45
2018-05-21T23:01:06.399Z,101582.62
2018-05-21T23:03:33.923Z,101400.80
2018-05-21T23:06:01.454Z,101456.66
2018-05-21T23:08:29.017Z,101550.11
2018-05-21T23:10:56.546Z,101619.19
2018-05-21T23:13:24.104Z,101639.50
2018-05-21T23:15:51.656Z,101753.27
2018-05-21T23:18:19.179Z,101737.02
2018-05-21T23:20:46.731Z,101721.78
2018-05-21T23:23:14.255Z,101752.25
2018-05-21T23:25:42.233Z,101550.11
2018-05-21T23:28:09.839Z,101555.19
2018-05-21T23:30:37.366Z,101556.20
2018-05-21T23:33:04.926Z,101619.19
2018-05-21T23:35:32.514Z,101578.55
2018-05-21T23:38:00.066Z,101554.17
2018-05-21T23:40:27.595Z,101587.70
2018-05-21T23:42:55.142Z,101573.47
2018-05-21T23:45:22.662Z,101575.50
2018-05-21T23:47:50.218Z,101677.08
2018-05-21T23:50:17.743Z,101825.39
2018-05-21T23:52:45.290Z,101654.73
2018-05-21T23:55:12.815Z,101718.73
2018-05-21T23:57:40.369Z,101711.62
